createdAt,value
2017-11-16T00:01:58.292Z,0.60
2017-11-16T00:04:26.603Z,0.60
2017-11-16T00:06:54.153Z,0.60
2017-11-16T00:09:21.681Z,0.60
2017-11-16T00:11:49.993Z,0.50
2017-11-16T00:14:17.550Z,0.50
2017-11-16T00:16:45.069Z,0.50
2017-11-16T00:19:12.659Z,0.50
2017-11-16T00:21:40.254Z,0.50
2017-11-16T00:24:07.835Z,0.50
2017-11-16T00:26:35.341Z,0.50
2017-11-16T00:29:02.869Z,0.50
2017-11-16T00:31:30.450Z,0.50
2017-11-16T00:33:57.974Z,0.50
2017-11-16T00:36:26.274Z,0.40
2017-11-16T00:38:53.840Z,0.40
2017-11-16T00:41:22.146Z,0.40
2017-11-16T00:43:49.782Z,0.40
2017-11-16T00:46:17.335Z,0.40
2017-11-16T00:48:44.879Z,0.40
2017-11-16T00:51:12.470Z,0.30
2017-11-16T00:53:40.087Z,0.30
2017-11-16T00:56:07.618Z,0.30
2017-11-16T00:58:35.196Z,0.30
2017-11-16T01:01:03.500Z,0.20
2017-11-16T01:03:31.011Z,0.20
2017-11-16T01:05:58.651Z,0.20
2017-11-16T01:08:26.192Z,0.10
2017-11-16T01:10:53.747Z,0.10
2017-11-16T01:13:21.355Z,0.10
2017-11-16T01:15:49.652Z,0.10
2017-11-16T01:18:17.195Z,0.10
2017-11-16T01:20:45.611Z,0.10
2017-11-16T01:23:13.125Z,0.00
2017-11-16T01:25:41.458Z,0.00
2017-11-16T01:28:09.037Z,0.00
2017-11-16T01:30:36.598Z,0.00
2017-11-16T01:33:04.982Z,0.00
2017-11-16T01:35:32.546Z,0.00
2017-11-16T01:38:00.878Z,0.00
2017-11-16T01:40:28.395Z,0.00
2017-11-16T01:42:57.705Z,0.00
2017-11-16T01:45:25.243Z,0.00
2017-11-16T01:47:53.541Z,0.10
2017-11-16T01:50:21.103Z,0.10
2017-11-16T01:52:48.652Z,0.10
2017-11-16T01:55:16.175Z,0.10
2017-11-16T01:57:43.788Z,0.10
2017-11-16T02:00:11.356Z,0.10
2017-11-16T02:02:40.542Z,0.00
2017-11-16T02:05:08.101Z,0.00
2017-11-16T02:07:35.623Z,0.00
2017-11-16T02:10:03.908Z,0.00
2017-11-16T02:12:31.464Z,0.00
2017-11-16T02:14:58.987Z,-0.10
2017-11-16T02:17:26.526Z,-0.10
2017-11-16T02:19:54.047Z,-0.10
2017-11-16T02:22:21.632Z,-0.10
2017-11-16T02:24:49.166Z,-0.10
2017-11-16T02:27:16.693Z,-0.20
2017-11-16T02:29:45.005Z,-0.10
2017-11-16T02:32:12.542Z,-0.20
2017-11-16T02:34:40.131Z,0.00
2017-11-16T02:37:07.714Z,0.00
2017-11-16T02:39:35.267Z,0.10
2017-11-16T02:42:02.800Z,0.10
2017-11-16T02:44:30.378Z,0.20
2017-11-16T02:46:57.893Z,0.20
2017-11-16T02:49:25.470Z,0.20
2017-11-16T02:51:53.034Z,0.20
2017-11-16T02:54:20.575Z,0.30
2017-11-16T02:56:48.092Z,0.40
2017-11-16T02:59:15.667Z,0.50
2017-11-16T03:01:43.954Z,0.60
2017-11-16T03:04:11.491Z,0.60
2017-11-16T03:06:39.840Z,0.60
2017-11-16T03:09:07.365Z,0.60
2017-11-16T03:11:34.886Z,0.70
2017-11-16T03:14:03.204Z,0.70
2017-11-16T03:16:30.772Z,0.70
2017-11-16T03:18:58.351Z,0.70
2017-11-16T03:21:25.928Z,0.70
2017-11-16T03:23:54.222Z,0.80
2017-11-16T03:26:21.755Z,0.70
2017-11-16T03:28:50.112Z,0.80
2017-11-16T03:31:17.641Z,0.80
2017-11-16T03:33:45.202Z,0.80
2017-11-16T03:36:12.784Z,0.80
2017-11-16T03:38:40.340Z,0.80
2017-11-16T03:41:07.898Z,0.80
2017-11-16T03:43:35.434Z,0.80
2017-11-16T03:46:02.990Z,0.90
2017-11-16T03:48:30.518Z,0.90
2017-11-16T03:50:58.810Z,0.90
2017-11-16T03:53:26.365Z,0.90
2017-11-16T03:55:53.910Z,0.90
2017-11-16T03:58:21.443Z,0.90
2017-11-16T04:00:49.019Z,0.90
2017-11-16T04:03:17.344Z,1.00
2017-11-16T04:05:44.869Z,0.90
2017-11-16T04:08:12.454Z,1.00
2017-11-16T04:10:40.014Z,1.00
2017-11-16T04:13:07.562Z,1.00
2017-11-16T04:15:35.167Z,1.00
2017-11-16T04:18:02.685Z,1.00
2017-11-16T04:20:30.214Z,1.00
2017-11-16T04:22:58.087Z,1.00
2017-11-16T04:25:25.619Z,1.00
2017-11-16T04:27:53.952Z,1.10
2017-11-16T04:30:21.490Z,1.00
2017-11-16T04:32:49.003Z,1.10
2017-11-16T04:35:17.314Z,1.10
2017-11-16T04:37:44.829Z,1.10
2017-11-16T04:40:12.366Z,1.20
2017-11-16T04:42:39.916Z,1.20
2017-11-16T04:45:07.454Z,1.10
2017-11-16T04:47:34.987Z,1.10
2017-11-16T04:50:02.541Z,1.00
2017-11-16T04:52:30.063Z,1.00
2017-11-16T04:54:57.620Z,0.90
2017-11-16T04:57:25.157Z,0.70
2017-11-16T04:59:52.731Z,0.60
2017-11-16T05:02:20.335Z,0.60
2017-11-16T05:04:48.644Z,0.50
2017-11-16T05:07:16.212Z,0.50
2017-11-16T05:09:43.779Z,0.40
2017-11-16T05:12:11.317Z,0.40
2017-11-16T05:14:38.844Z,0.50
2017-11-16T05:17:06.404Z,0.60
2017-11-16T05:19:33.939Z,0.70
2017-11-16T05:22:02.275Z,0.70
2017-11-16T05:24:29.839Z,0.70
2017-11-16T05:26:57.412Z,0.70
2017-11-16T05:29:24.982Z,0.70
2017-11-16T05:31:56.759Z,0.70
2017-11-16T05:34:24.318Z,0.60
2017-11-16T05:36:51.862Z,0.60
2017-11-16T05:39:19.643Z,0.60
2017-11-16T05:41:47.199Z,0.70
2017-11-16T05:44:14.778Z,0.70
2017-11-16T05:46:42.318Z,0.60
2017-11-16T05:49:09.863Z,0.60
2017-11-16T05:51:37.426Z,0.60
2017-11-16T05:54:08.741Z,0.70
2017-11-16T05:56:36.319Z,0.70
2017-11-16T05:59:04.894Z,0.80
2017-11-16T06:01:38.368Z,0.90
2017-11-16T06:04:05.921Z,0.90
2017-11-16T06:06:33.922Z,1.00
2017-11-16T06:09:16.147Z,1.10
2017-11-16T06:11:47.760Z,1.10
2017-11-16T06:14:15.373Z,1.10
2017-11-16T06:16:42.944Z,1.10
2017-11-16T06:19:10.483Z,1.10
2017-11-16T06:21:38.826Z,1.10
2017-11-16T06:24:06.405Z,1.10
2017-11-16T06:26:34.706Z,1.10
2017-11-16T06:29:02.324Z,1.10
2017-11-16T06:31:30.748Z,1.10
2017-11-16T06:33:58.310Z,1.10
2017-11-16T06:36:25.851Z,1.10
2017-11-16T06:38:53.474Z,1.10
2017-11-16T06:41:21.050Z,1.10
2017-11-16T06:43:48.585Z,1.10
2017-11-16T06:46:16.116Z,1.10
2017-11-16T06:48:43.681Z,1.20
2017-11-16T06:51:11.211Z,1.20
2017-11-16T06:53:38.782Z,1.10
2017-11-16T06:56:06.383Z,1.10
2017-11-16T06:58:33.973Z,1.10
2017-11-16T07:01:02.296Z,1.20
2017-11-16T07:03:33.361Z,1.10
2017-11-16T07:06:00.961Z,1.10
2017-11-16T07:08:28.548Z,1.20
2017-11-16T07:10:56.099Z,1.20
2017-11-16T07:13:23.681Z,1.30
2017-11-16T07:15:51.227Z,1.20
2017-11-16T07:18:18.809Z,1.20
2017-11-16T07:20:46.384Z,1.20
2017-11-16T07:23:14.707Z,1.20
2017-11-16T07:25:42.243Z,1.20
2017-11-16T07:28:09.841Z,1.20
2017-11-16T07:30:37.409Z,1.20
2017-11-16T07:33:04.992Z,1.20
2017-11-16T07:35:33.349Z,1.20
2017-11-16T07:38:00.901Z,1.10
2017-11-16T07:40:28.494Z,1.20
2017-11-16T07:42:56.796Z,1.20
2017-11-16T07:45:24.384Z,1.10
2017-11-16T07:47:51.950Z,1.10
2017-11-16T07:50:19.530Z,1.10
2017-11-16T07:52:47.148Z,1.10
2017-11-16T07:55:14.680Z,1.10
2017-11-16T07:57:42.296Z,1.00
2017-11-16T08:00:09.917Z,1.00
2017-11-16T08:02:37.465Z,1.00
2017-11-16T08:05:05.052Z,1.10
2017-11-16T08:07:32.649Z,1.10
2017-11-16T08:10:01.013Z,1.10
2017-11-16T08:12:28.585Z,1.10
2017-11-16T08:14:56.965Z,1.20
2017-11-16T08:17:24.571Z,1.20
2017-11-16T08:19:52.130Z,1.20
2017-11-16T08:22:19.723Z,1.20
2017-11-16T08:24:47.314Z,1.30
2017-11-16T08:27:14.874Z,1.30
2017-11-16T08:29:42.463Z,1.20
2017-11-16T08:32:10.100Z,1.10
2017-11-16T08:34:37.720Z,1.20
2017-11-16T08:37:05.334Z,1.10
2017-11-16T08:39:32.902Z,1.10
2017-11-16T08:42:00.489Z,1.00
2017-11-16T08:44:28.057Z,1.00
2017-11-16T08:46:56.452Z,1.10
2017-11-16T08:49:24.792Z,1.20
2017-11-16T08:51:52.401Z,1.20
2017-11-16T08:54:19.965Z,1.30
2017-11-16T08:56:47.585Z,1.30
2017-11-16T08:59:15.140Z,1.40
2017-11-16T09:01:46.408Z,1.30
2017-11-16T09:04:14.702Z,1.30
2017-11-16T09:06:42.649Z,1.30
2017-11-16T09:09:11.036Z,1.40
2017-11-16T09:11:38.606Z,1.40
2017-11-16T09:14:06.174Z,1.40
2017-11-16T09:16:33.748Z,1.40
2017-11-16T09:19:01.352Z,1.30
2017-11-16T09:21:29.752Z,1.40
2017-11-16T09:23:57.287Z,1.30
2017-11-16T09:26:24.889Z,1.30
2017-11-16T09:28:52.458Z,1.30
2017-11-16T09:31:20.001Z,1.30
2017-11-16T09:33:47.598Z,1.20
2017-11-16T09:36:15.155Z,1.30
2017-11-16T09:38:42.840Z,1.40
2017-11-16T09:41:10.426Z,1.40
2017-11-16T09:43:37.972Z,1.40
2017-11-16T09:46:05.593Z,1.40
2017-11-16T09:48:33.140Z,1.40
2017-11-16T09:51:00.750Z,1.50
2017-11-16T09:53:28.319Z,1.60
2017-11-16T09:55:55.929Z,1.70
2017-11-16T09:58:23.542Z,1.80
2017-11-16T10:00:51.124Z,1.90
2017-11-16T10:03:18.693Z,2.00
2017-11-16T10:05:46.232Z,2.00
2017-11-16T10:08:13.803Z,2.10
2017-11-16T10:10:41.357Z,2.20
2017-11-16T10:13:08.984Z,2.20
2017-11-16T10:15:36.522Z,2.30
2017-11-16T10:18:04.889Z,2.20
2017-11-16T10:20:33.250Z,2.20
2017-11-16T10:23:00.801Z,2.20
2017-11-16T10:25:37.359Z,2.20
2017-11-16T10:28:04.931Z,2.20
2017-11-16T10:30:32.485Z,2.20
2017-11-16T10:33:00.104Z,2.20
2017-11-16T10:35:27.709Z,2.20
2017-11-16T10:37:55.559Z,2.20
2017-11-16T10:40:23.118Z,2.10
2017-11-16T10:42:50.720Z,2.10
2017-11-16T10:45:18.327Z,2.00
2017-11-16T10:47:45.906Z,2.00
2017-11-16T10:50:14.233Z,1.90
2017-11-16T10:52:42.615Z,1.80
2017-11-16T10:55:10.429Z,1.80
2017-11-16T10:57:37.955Z,1.70
2017-11-16T11:00:05.484Z,1.80
2017-11-16T11:02:33.055Z,1.60
2017-11-16T11:05:00.650Z,1.60
2017-11-16T11:07:28.954Z,1.80
2017-11-16T11:09:57.261Z,1.80
2017-11-16T11:12:24.843Z,1.80
2017-11-16T11:14:54.202Z,1.90
2017-11-16T11:17:21.798Z,1.90
2017-11-16T11:19:49.390Z,2.00
2017-11-16T11:22:17.731Z,2.20
2017-11-16T11:24:45.613Z,2.20
2017-11-16T11:27:13.113Z,2.20
2017-11-16T11:29:40.662Z,2.30
2017-11-16T11:32:09.120Z,2.30
2017-11-16T11:34:36.885Z,2.30
2017-11-16T11:37:04.470Z,2.30
2017-11-16T11:39:32.070Z,2.30
2017-11-16T11:41:59.652Z,2.30
2017-11-16T11:44:27.257Z,2.20
2017-11-16T11:46:54.862Z,2.20
2017-11-16T11:49:23.047Z,2.10
2017-11-16T11:52:01.670Z,2.00
2017-11-16T11:54:51.096Z,2.00
